Time;durP1;ratioP1;P1;durP2;ratioP2;P2;SDS_P1;SDS_P2;PMS_P1;PMS_P2;Temp;Humidity;BMP_temperature;BMP_pressure;BME280_temperature;BME280_humidity;BME280_pressure;Samples;Min_cycle;Max_cycle;Signal;HPM_P1;HPM_P2
2023/06/18 00:00:36;;;;;;;12.05;4.95;;;20.90;99.90;;;;;;5094500;28;20165;-51
2023/06/18 00:03:02;;;;;;;9.38;4.85;;;20.70;99.90;;;;;;5094425;28;20244;-51
2023/06/18 00:05:27;;;;;;;8.65;4.95;;;20.30;99.90;;;;;;5094299;28;20224;-52
2023/06/18 00:07:53;;;;;;;9.05;5.13;;;20.40;99.90;;;;;;5093811;28;20213;-47
2023/06/18 00:10:19;;;;;;;8.25;4.90;;;20.70;99.90;;;;;;5094663;28;20166;-51
2023/06/18 00:12:44;;;;;;;7.85;4.30;;;20.70;99.90;;;;;;5094216;28;20218;-51
2023/06/18 00:15:10;;;;;;;8.35;4.93;;;20.20;99.90;;;;;;5094171;28;20168;-51
2023/06/18 00:17:36;;;;;;;9.52;4.28;;;20.20;99.90;;;;;;5094313;28;20613;-49
2023/06/18 00:20:03;;;;;;;8.48;4.70;;;20.30;99.90;;;;;;5093993;28;20180;-52
2023/06/18 00:22:29;;;;;;;9.88;5.00;;;19.90;99.90;;;;;;5093746;28;20253;-45
2023/06/18 00:24:54;;;;;;;9.98;5.03;;;20.40;99.90;;;;;;5093968;28;20252;-45
2023/06/18 00:27:20;;;;;;;16.52;5.40;;;20.30;99.90;;;;;;5094295;28;20203;-45
2023/06/18 00:29:46;;;;;;;8.35;4.75;;;20.40;99.90;;;;;;5094103;28;20193;-45
2023/06/18 00:32:15;;;;;;;11.40;5.05;;;20.50;99.90;;;;;;5094101;28;20630;-45
2023/06/18 00:34:41;;;;;;;10.40;4.95;;;20.60;99.90;;;;;;5093792;28;20524;-46
2023/06/18 00:37:09;;;;;;;12.82;5.00;;;20.60;99.90;;;;;;5093929;28;20173;-51
2023/06/18 00:39:36;;;;;;;6.18;4.60;;;20.60;99.90;;;;;;5093879;28;20571;-51
2023/06/18 00:42:02;;;;;;;10.65;5.00;;;20.70;99.90;;;;;;5093665;28;20162;-51
2023/06/18 00:44:28;;;;;;;8.82;4.47;;;20.60;99.90;;;;;;5093614;28;20625;-50
2023/06/18 00:46:56;;;;;;;6.90;4.50;;;20.60;99.90;;;;;;5092846;28;20216;-51
2023/06/18 00:49:22;;;;;;;9.90;4.40;;;20.60;99.90;;;;;;5093801;28;20165;-51
2023/06/18 00:51:48;;;;;;;10.52;4.25;;;20.60;99.90;;;;;;5093848;28;20646;-51
2023/06/18 00:54:15;;;;;;;11.02;5.05;;;20.50;99.90;;;;;;5093382;28;20536;-51
2023/06/18 00:56:53;;;;;;;10.25;4.65;;;20.40;99.90;;;;;;5093638;28;20169;-51
2023/06/18 00:59:23;;;;;;;12.20;5.38;;;20.40;99.90;;;;;;5093644;28;20168;-45
2023/06/18 01:01:57;;;;;;;10.30;4.55;;;20.40;99.90;;;;;;5093561;28;20621;-46
2023/06/18 01:04:32;;;;;;;15.30;5.18;;;20.90;99.90;;;;;;5093254;28;20172;-50
2023/06/18 01:07:01;;;;;;;11.27;5.53;;;20.30;99.90;;;;;;5093284;28;20208;-47
2023/06/18 01:09:27;;;;;;;16.13;6.95;;;20.80;99.90;;;;;;5093006;28;20729;-46
2023/06/18 01:11:54;;;;;;;23.10;8.10;;;20.10;99.90;;;;;;5093125;28;20222;-45
2023/06/18 01:14:26;;;;;;;15.00;6.80;;;20.30;99.90;;;;;;5093433;28;20165;-45
2023/06/18 01:16:57;;;;;;;17.30;7.70;;;20.10;99.90;;;;;;5092941;28;20162;-45
2023/06/18 01:19:43;;;;;;;15.80;5.72;;;20.10;99.90;;;;;;5092896;28;20247;-45
2023/06/18 01:22:47;;;;;;;8.60;4.40;;;19.80;99.90;;;;;;5092818;28;20654;-47
2023/06/18 01:25:14;;;;;;;15.85;4.97;;;19.80;99.90;;;;;;5092839;28;20168;-47
2023/06/18 01:27:41;;;;;;;16.25;5.00;;;19.80;99.90;;;;;;5092875;28;20252;-48
2023/06/18 01:30:11;;;;;;;9.23;5.43;;;19.80;99.90;;;;;;5092722;28;20165;-45
2023/06/18 01:32:38;;;;;;;16.30;5.47;;;19.70;99.90;;;;;;5092782;28;20289;-46
2023/06/18 01:35:05;;;;;;;11.55;5.15;;;19.70;99.90;;;;;;5092562;28;20529;-46
2023/06/18 01:37:46;;;;;;;16.58;5.18;;;19.80;99.90;;;;;;5092807;28;20529;-49
2023/06/18 01:40:41;;;;;;;13.00;4.85;;;20.30;99.90;;;;;;5092432;28;20161;-49
2023/06/18 01:43:18;;;;;;;12.13;5.22;;;19.70;99.90;;;;;;5092465;28;20214;-47
2023/06/18 01:45:54;;;;;;;14.98;5.45;;;19.60;99.90;;;;;;5092585;28;20209;-46
2023/06/18 01:48:26;;;;;;;18.20;5.10;;;19.60;99.90;;;;;;5092558;28;20226;-48
2023/06/18 01:50:53;;;;;;;11.63;5.25;;;19.60;99.90;;;;;;5092703;28;20176;-45
2023/06/18 01:53:22;;;;;;;19.02;5.05;;;19.60;99.90;;;;;;5092683;28;20696;-45
2023/06/18 01:55:52;;;;;;;11.57;5.40;;;19.50;99.90;;;;;;5092592;28;20189;-46
2023/06/18 01:58:21;;;;;;;18.67;5.45;;;19.60;99.90;;;;;;5092595;28;20172;-46
2023/06/18 02:00:48;;;;;;;16.80;5.53;;;19.60;99.90;;;;;;5092426;28;20589;-48
2023/06/18 02:03:14;;;;;;;22.55;5.78;;;19.50;99.90;;;;;;5092127;28;20620;-45
2023/06/18 02:05:40;;;;;;;16.17;5.10;;;19.50;99.90;;;;;;5092191;28;20200;-45
2023/06/18 02:08:05;;;;;;;15.85;4.88;;;19.50;99.90;;;;;;5091946;28;20217;-45
2023/06/18 02:10:31;;;;;;;13.23;5.30;;;19.40;99.90;;;;;;5092038;28;20180;-45
2023/06/18 02:12:57;;;;;;;10.68;5.05;;;19.40;99.90;;;;;;5092057;28;20256;-46
2023/06/18 02:15:22;;;;;;;10.43;4.97;;;19.40;99.90;;;;;;5092141;28;20165;-47
2023/06/18 02:17:48;;;;;;;15.63;6.20;;;19.30;99.90;;;;;;5092368;28;20248;-46
2023/06/18 02:20:14;;;;;;;16.85;5.20;;;19.30;99.90;;;;;;5092063;28;20161;-45
2023/06/18 02:22:39;;;;;;;12.05;4.65;;;19.20;99.90;;;;;;5092069;28;20176;-45
2023/06/18 02:25:06;;;;;;;12.73;4.75;;;19.40;99.90;;;;;;5091609;28;20536;-46
2023/06/18 02:27:32;;;;;;;9.23;5.13;;;19.20;99.90;;;;;;5091773;28;20184;-46
2023/06/18 02:30:01;;;;;;;10.98;4.88;;;19.10;99.90;;;;;;5091776;28;20167;-45
2023/06/18 02:32:28;;;;;;;10.50;4.70;;;19.10;99.90;;;;;;5091909;28;20173;-46
2023/06/18 02:34:55;;;;;;;7.50;4.38;;;19.10;99.90;;;;;;5091607;28;20166;-48
2023/06/18 02:37:20;;;;;;;14.23;5.00;;;19.00;99.90;;;;;;5092272;28;20170;-47
2023/06/18 02:39:46;;;;;;;10.52;4.97;;;19.00;99.90;;;;;;5091626;28;20157;-46
2023/06/18 02:42:11;;;;;;;10.55;4.32;;;19.00;99.90;;;;;;5091519;28;20165;-48
2023/06/18 02:44:39;;;;;;;8.75;4.75;;;18.90;99.90;;;;;;5091618;28;20218;-47
2023/06/18 02:47:05;;;;;;;13.90;5.00;;;18.90;99.90;;;;;;5091794;28;20213;-46
2023/06/18 02:49:31;;;;;;;14.85;4.53;;;19.10;99.90;;;;;;5091713;28;20188;-45
2023/06/18 02:51:57;;;;;;;13.55;5.45;;;19.00;99.90;;;;;;5091366;28;20656;-48
2023/06/18 02:54:22;;;;;;;13.40;5.20;;;19.00;99.90;;;;;;5091426;28;20169;-45
2023/06/18 02:56:48;;;;;;;9.77;4.90;;;18.90;99.90;;;;;;5091806;28;20173;-46
2023/06/18 02:59:13;;;;;;;14.60;4.97;;;18.90;99.90;;;;;;5091445;28;20176;-46
2023/06/18 03:01:39;;;;;;;9.13;4.93;;;19.20;99.90;;;;;;5091433;28;20234;-45
2023/06/18 03:04:04;;;;;;;12.93;5.00;;;19.10;99.90;;;;;;5091406;28;20161;-46
2023/06/18 03:06:30;;;;;;;11.35;4.35;;;18.90;99.90;;;;;;5091287;28;20204;-46
2023/06/18 03:08:56;;;;;;;10.75;4.93;;;18.80;99.90;;;;;;5092411;28;20216;-45
2023/06/18 03:11:22;;;;;;;7.65;4.75;;;18.50;99.90;;;;;;5095824;28;20565;-47
2023/06/18 03:13:50;;;;;;;8.35;5.10;;;18.90;99.90;;;;;;5095731;28;20566;-47
2023/06/18 03:16:16;;;;;;;10.77;5.03;;;18.90;99.90;;;;;;5095285;28;20169;-46
2023/06/18 03:18:41;;;;;;;9.48;5.13;;;18.80;99.90;;;;;;5095261;28;20166;-45
2023/06/18 03:21:07;;;;;;;11.73;5.35;;;18.80;99.90;;;;;;5095182;28;20215;-46
2023/06/18 03:23:32;;;;;;;7.65;4.80;;;18.40;99.90;;;;;;5095202;28;20204;-46
2023/06/18 03:25:58;;;;;;;14.88;5.07;;;18.70;99.90;;;;;;5095145;28;20298;-46
2023/06/18 03:28:24;;;;;;;5.72;4.57;;;18.70;99.90;;;;;;5095039;28;20166;-46
2023/06/18 03:30:49;;;;;;;12.25;4.53;;;18.80;99.90;;;;;;5095357;28;20161;-46
2023/06/18 03:33:17;;;;;;;9.13;4.75;;;18.70;99.90;;;;;;5095004;28;20166;-45
2023/06/18 03:35:46;;;;;;;10.88;4.32;;;17.90;99.90;;;;;;5095108;28;20248;-47
2023/06/18 03:38:12;;;;;;;8.00;4.68;;;18.30;99.90;;;;;;5095193;28;20248;-45
2023/06/18 03:40:37;;;;;;;9.85;4.25;;;18.50;99.90;;;;;;5076625;28;20680;-45
2023/06/18 03:43:03;;;;;;;25.15;5.85;;;18.40;99.90;;;;;;5094815;28;20652;-46
2023/06/18 03:45:28;;;;;;;9.65;5.65;;;18.50;99.90;;;;;;5076332;28;20212;-45
2023/06/18 03:47:54;;;;;;;9.82;4.63;;;18.40;99.90;;;;;;5094736;28;20184;-45
2023/06/18 03:50:19;;;;;;;9.05;4.90;;;18.40;99.90;;;;;;5095037;28;20165;-45
2023/06/18 03:52:45;;;;;;;13.63;5.20;;;18.50;99.90;;;;;;5094597;28;20218;-45
2023/06/18 03:55:11;;;;;;;11.65;4.70;;;18.60;99.90;;;;;;5094530;28;20165;-45
2023/06/18 03:57:36;;;;;;;10.40;5.07;;;18.70;99.90;;;;;;5094767;28;20177;-45
2023/06/18 04:00:03;;;;;;;9.35;5.20;;;18.60;99.90;;;;;;5094488;28;20621;-45
2023/06/18 04:02:28;;;;;;;10.27;5.15;;;18.50;99.90;;;;;;5094321;28;20177;-45
2023/06/18 04:04:54;;;;;;;7.68;4.68;;;18.80;99.90;;;;;;5094360;28;20161;-45
2023/06/18 04:07:20;;;;;;;10.82;4.82;;;19.00;99.90;;;;;;5094528;28;22263;-45
2023/06/18 04:09:45;;;;;;;11.23;4.97;;;19.20;99.90;;;;;;5094278;28;20173;-45
2023/06/18 04:12:11;;;;;;;8.40;4.93;;;19.20;99.90;;;;;;5094180;28;20536;-45
2023/06/18 04:14:37;;;;;;;8.38;4.78;;;19.20;99.90;;;;;;5094392;28;20628;-45
2023/06/18 04:17:03;;;;;;;7.85;4.82;;;19.40;99.90;;;;;;5094164;28;20168;-45
2023/06/18 04:19:28;;;;;;;10.15;6.15;;;18.90;99.90;;;;;;5092992;28;20641;-45
2023/06/18 04:21:54;;;;;;;8.38;6.22;;;19.00;99.90;;;;;;5072746;28;20521;-45
2023/06/18 04:24:19;;;;;;;10.52;5.82;;;19.20;99.90;;;;;;5074178;28;20174;-45
2023/06/18 04:26:45;;;;;;;6.97;5.82;;;19.50;99.90;;;;;;5073597;28;20681;-45
2023/06/18 04:29:10;;;;;;;15.70;6.65;;;19.60;99.90;;;;;;5073634;28;20170;-45
2023/06/18 04:31:36;;;;;;;6.72;6.00;;;19.60;99.90;;;;;;5073835;28;20255;-45
2023/06/18 04:34:02;;;;;;;8.52;6.47;;;19.40;99.90;;;;;;5073633;28;20693;-45
2023/06/18 04:36:27;;;;;;;10.25;6.40;;;19.50;99.90;;;;;;5073634;28;20181;-45
2023/06/18 04:38:53;;;;;;;8.63;6.75;;;20.20;99.90;;;;;;5073451;28;20166;-45
2023/06/18 04:41:18;;;;;;;10.00;6.93;;;20.30;99.90;;;;;;5073863;28;20172;-45
2023/06/18 04:43:44;;;;;;;10.27;6.93;;;20.10;99.90;;;;;;5073618;28;20166;-51
2023/06/18 04:46:10;;;;;;;8.05;6.75;;;20.30;99.90;;;;;;5073536;28;20293;-51
2023/06/18 04:48:35;;;;;;;7.75;6.88;;;20.50;99.90;;;;;;5073329;28;20170;-51
2023/06/18 04:51:01;;;;;;;13.38;7.15;;;;;;;;;;5073305;28;20171;-50
2023/06/18 04:53:27;;;;;;;8.65;7.47;;;20.60;99.90;;;;;;5073163;28;20170;-47
2023/06/18 04:55:52;;;;;;;8.30;7.20;;;20.60;99.90;;;;;;5073194;28;20173;-47
2023/06/18 04:58:20;;;;;;;10.35;8.85;;;20.60;99.90;;;;;;5073539;28;20583;-47
2023/06/18 05:00:46;;;;;;;10.20;7.38;;;20.40;99.90;;;;;;5073680;28;20170;-47
2023/06/18 05:03:12;;;;;;;14.27;8.07;;;20.30;99.90;;;;;;5073251;28;20186;-46
2023/06/18 05:05:38;;;;;;;15.50;8.05;;;20.10;99.90;;;;;;5072900;28;20201;-46
2023/06/18 05:08:03;;;;;;;12.75;7.90;;;20.30;99.90;;;;;;5072810;28;20214;-48
2023/06/18 05:10:29;;;;;;;11.75;7.07;;;20.20;99.90;;;;;;5072896;28;20260;-46
2023/06/18 05:12:55;;;;;;;11.48;6.93;;;20.80;99.90;;;;;;5073296;28;20166;-45
2023/06/18 05:15:25;;;;;;;8.50;6.65;;;20.70;99.90;;;;;;5073074;28;20178;-44
2023/06/18 05:17:51;;;;;;;11.90;7.25;;;;;;;;;;5072452;28;20215;-45
2023/06/18 05:20:17;;;;;;;11.75;7.07;;;20.80;99.90;;;;;;5073090;28;20170;-45
2023/06/18 05:22:42;;;;;;;9.77;6.70;;;20.70;99.90;;;;;;5072645;28;20165;-45
2023/06/18 05:25:08;;;;;;;7.78;6.10;;;20.50;99.90;;;;;;5072804;28;20231;-45
2023/06/18 05:27:34;;;;;;;7.88;6.03;;;20.80;99.90;;;;;;5072506;28;20206;-45
2023/06/18 05:30:00;;;;;;;7.05;6.18;;;;;;;;;;5072720;28;20193;-45
2023/06/18 05:32:26;;;;;;;9.02;6.13;;;21.10;99.90;;;;;;5084946;28;20203;-48
2023/06/18 05:34:54;;;;;;;13.60;6.15;;;21.00;99.90;;;;;;5091264;28;20188;-48
2023/06/18 05:37:19;;;;;;;7.82;6.15;;;21.00;99.90;;;;;;5091786;28;20169;-47
2023/06/18 05:39:45;;;;;;;10.82;6.65;;;21.10;99.90;;;;;;5091097;28;20238;-47
2023/06/18 05:42:10;;;;;;;8.45;6.53;;;21.00;99.90;;;;;;5090961;28;20180;-47
2023/06/18 05:44:37;;;;;;;12.02;6.65;;;21.00;99.90;;;;;;5079555;28;20226;-50
2023/06/18 05:47:04;;;;;;;8.52;6.75;;;;;;;;;;5069305;28;20313;-47
2023/06/18 05:49:29;;;;;;;7.78;6.65;;;21.20;99.90;;;;;;5074777;28;20165;-46
2023/06/18 05:51:55;;;;;;;9.38;6.80;;;21.50;99.90;;;;;;5090408;28;20180;-47
2023/06/18 05:54:20;;;;;;;8.88;6.40;;;21.30;99.90;;;;;;5082150;28;20181;-47
2023/06/18 05:56:46;;;;;;;8.95;6.40;;;21.10;99.90;;;;;;5077308;28;20195;-47
2023/06/18 05:59:11;;;;;;;9.27;6.85;;;18.80;99.90;;;;;;5089511;28;20185;-47
2023/06/18 06:01:37;;;;;;;8.32;5.68;;;21.20;99.90;;;;;;5090590;28;20165;-47
2023/06/18 06:04:04;;;;;;;7.93;5.57;;;21.20;99.90;;;;;;5090712;28;20230;-48
2023/06/18 06:06:29;;;;;;;6.22;5.20;;;21.80;99.90;;;;;;5090429;28;20711;-50
2023/06/18 06:08:55;;;;;;;8.00;6.13;;;21.40;99.90;;;;;;5090355;28;20300;-51
2023/06/18 06:11:21;;;;;;;8.25;6.20;;;;;;;;;;5090838;28;20263;-51
2023/06/18 06:13:47;;;;;;;7.70;6.00;;;21.60;99.90;;;;;;5090840;28;20257;-51
2023/06/18 06:16:13;;;;;;;10.75;5.57;;;;;;;;;;5090353;28;20169;-51
2023/06/18 06:18:38;;;;;;;6.10;5.43;;;21.80;99.90;;;;;;5090253;28;20169;-51
2023/06/18 06:21:04;;;;;;;7.10;5.45;;;;;;;;;;5090037;28;20172;-51
2023/06/18 06:23:31;;;;;;;6.82;6.13;;;22.40;99.90;;;;;;5089988;28;20165;-51
2023/06/18 06:25:56;;;;;;;9.15;5.82;;;21.90;99.90;;;;;;5089972;28;20197;-50
2023/06/18 06:28:22;;;;;;;7.18;6.28;;;22.10;99.90;;;;;;5090032;28;20720;-50
2023/06/18 06:30:47;;;;;;;10.25;5.65;;;22.40;99.90;;;;;;5090435;28;20524;-50
2023/06/18 06:33:13;;;;;;;7.07;5.97;;;;;;;;;;5090025;28;20644;-50
2023/06/18 06:35:39;;;;;;;13.75;6.57;;;;;;;;;;5089958;28;20252;-50
2023/06/18 06:38:05;;;;;;;7.80;5.68;;;22.30;99.90;;;;;;5090046;28;20158;-50
2023/06/18 06:40:31;;;;;;;7.13;6.45;;;;;;;;;;5089875;28;20165;-51
2023/06/18 06:42:57;;;;;;;7.95;6.78;;;22.40;99.90;;;;;;5089365;28;20633;-50
2023/06/18 06:45:22;;;;;;;5.93;5.32;;;22.60;99.90;;;;;;5089324;28;20169;-51
2023/06/18 06:47:48;;;;;;;6.68;5.78;;;;;;;;;;5090225;28;20246;-50
2023/06/18 06:50:15;;;;;;;7.70;6.20;;;22.90;99.90;;;;;;5089891;28;20161;-50
2023/06/18 06:52:41;;;;;;;9.40;5.68;;;;;;;;;;5089430;28;20222;-50
2023/06/18 06:55:07;;;;;;;8.02;5.55;;;22.80;99.90;;;;;;5089687;28;20252;-50
2023/06/18 06:57:33;;;;;;;7.25;5.50;;;;;;;;;;5089843;28;20169;-50
2023/06/18 06:59:59;;;;;;;6.60;5.25;;;23.40;99.90;;;;;;5090108;28;20172;-50
2023/06/18 07:02:25;;;;;;;9.20;5.60;;;23.60;99.90;;;;;;5089693;28;20555;-50
2023/06/18 07:04:50;;;;;;;8.88;5.40;;;23.60;99.90;;;;;;5089633;28;20177;-50
2023/06/18 07:07:16;;;;;;;9.02;5.50;;;23.90;99.90;;;;;;5090060;28;20288;-51
2023/06/18 07:09:42;;;;;;;8.73;5.80;;;;;;;;;;5089659;28;20536;-50
2023/06/18 07:12:08;;;;;;;10.65;5.75;;;24.00;99.90;;;;;;5089695;28;20684;-51
2023/06/18 07:14:35;;;;;;;7.22;6.00;;;23.90;99.90;;;;;;5089757;28;20640;-51
2023/06/18 07:17:00;;;;;;;9.57;6.20;;;24.10;99.90;;;;;;5089725;28;20172;-50
2023/06/18 07:19:26;;;;;;;7.95;5.70;;;24.20;99.90;;;;;;5090275;28;20594;-50
2023/06/18 07:21:53;;;;;;;7.45;6.10;;;24.10;99.90;;;;;;5089575;28;20598;-51
2023/06/18 07:24:19;;;;;;;6.60;5.75;;;24.00;99.90;;;;;;5089783;28;20172;-51
2023/06/18 07:26:44;;;;;;;7.78;5.78;;;23.90;99.90;;;;;;5089445;28;20205;-51
2023/06/18 07:29:10;;;;;;;8.00;5.65;;;24.50;99.90;;;;;;5089509;28;20197;-51
2023/06/18 07:31:35;;;;;;;9.05;5.93;;;24.60;99.90;;;;;;5089668;28;20165;-51
2023/06/18 07:34:01;;;;;;;6.55;5.70;;;24.70;99.90;;;;;;5089522;28;20484;-51
2023/06/18 07:36:26;;;;;;;6.90;5.18;;;24.50;99.90;;;;;;5089581;28;20270;-51
2023/06/18 07:38:52;;;;;;;8.35;6.03;;;25.30;99.90;;;;;;5089543;28;20173;-50
2023/06/18 07:41:18;;;;;;;6.00;5.40;;;25.20;99.90;;;;;;5090234;28;20173;-51
2023/06/18 07:43:44;;;;;;;10.80;6.00;;;;;;;;;;5089679;28;20216;-51
2023/06/18 07:46:10;;;;;;;9.27;5.70;;;25.30;99.90;;;;;;5089690;28;20200;-51
2023/06/18 07:48:36;;;;;;;6.50;5.35;;;25.20;99.90;;;;;;5089317;28;20225;-51
2023/06/18 07:51:03;;;;;;;6.20;5.60;;;24.80;99.90;;;;;;5089775;28;20235;-50
2023/06/18 07:53:28;;;;;;;5.85;5.13;;;25.30;99.90;;;;;;5089469;28;20168;-51
2023/06/18 07:55:54;;;;;;;6.45;5.72;;;25.60;99.90;;;;;;5091975;28;20640;-51
2023/06/18 07:58:20;;;;;;;7.00;5.70;;;25.80;99.90;;;;;;5093402;28;20254;-50
2023/06/18 08:00:46;;;;;;;7.25;5.90;;;;;;;;;;5093371;28;20620;-50
2023/06/18 08:03:12;;;;;;;6.43;5.72;;;;;;;;;;5092912;28;20226;-51
2023/06/18 08:05:37;;;;;;;6.78;6.07;;;26.00;99.60;;;;;;5092745;28;20640;-51
2023/06/18 08:08:03;;;;;;;7.88;6.00;;;25.80;99.20;;;;;;5092836;28;20676;-50
2023/06/18 08:10:29;;;;;;;6.25;5.65;;;;;;;;;;5092487;28;20160;-50
2023/06/18 08:12:55;;;;;;;7.07;6.03;;;26.50;98.00;;;;;;5092655;28;20169;-50
2023/06/18 08:15:20;;;;;;;10.00;6.50;;;26.60;97.00;;;;;;5092779;28;20222;-50
2023/06/18 08:17:46;;;;;;;8.88;5.57;;;;;;;;;;5092775;28;20165;-51
2023/06/18 08:20:12;;;;;;;7.32;5.60;;;;;;;;;;5092484;28;20638;-51
2023/06/18 08:22:38;;;;;;;24.63;21.25;;;;;;;;;;5092558;28;20165;-52
2023/06/18 08:25:04;;;;;;;10.48;9.48;;;26.40;95.30;;;;;;5092649;28;20290;-51
2023/06/18 08:27:30;;;;;;;10.15;7.30;;;26.90;96.20;;;;;;5092652;28;20235;-52
2023/06/18 08:29:55;;;;;;;8.05;5.90;;;27.00;96.70;;;;;;5092123;28;20161;-52
2023/06/18 08:32:21;;;;;;;7.47;6.38;;;27.30;95.10;;;;;;5092105;28;20216;-52
2023/06/18 08:34:47;;;;;;;7.57;6.10;;;;;;;;;;5092530;28;20200;-52
2023/06/18 08:37:13;;;;;;;6.68;6.07;;;;;;;;;;5092255;28;20165;-52
2023/06/18 08:39:39;;;;;;;9.45;5.75;;;27.50;94.70;;;;;;5092138;28;20164;-52
2023/06/18 08:42:06;;;;;;;8.93;6.10;;;28.00;92.80;;;;;;5092260;28;20164;-51
2023/06/18 08:44:34;;;;;;;8.15;5.45;;;;;;;;;;5090701;28;20184;-51
2023/06/18 08:47:03;;;;;;;10.98;5.85;;;27.70;94.50;;;;;;5091595;28;20299;-50
2023/06/18 08:49:32;;;;;;;8.85;5.82;;;27.30;95.70;;;;;;5091988;28;20160;-51
2023/06/18 08:52:00;;;;;;;8.13;5.78;;;27.50;95.50;;;;;;5088163;28;20212;-51
2023/06/18 08:54:37;;;;;;;8.40;6.15;;;27.50;96.70;;;;;;5079128;28;20180;-51
2023/06/18 08:57:30;;;;;;;6.63;5.80;;;27.90;97.30;;;;;;5070157;28;20655;-51
2023/06/18 08:59:59;;;;;;;12.15;5.85;;;27.90;97.00;;;;;;5071103;28;20245;-51
2023/06/18 09:02:26;;;;;;;9.73;5.88;;;28.30;97.20;;;;;;5084884;28;20527;-51
2023/06/18 09:04:53;;;;;;;6.32;4.70;;;27.90;92.10;;;;;;5088950;28;20180;-51
2023/06/18 09:07:20;;;;;;;5.65;5.03;;;28.00;91.30;;;;;;5087203;28;20224;-51
2023/06/18 09:09:46;;;;;;;6.75;4.57;;;;;;;;;;5091871;28;20161;-51
2023/06/18 09:12:12;;;;;;;7.93;4.65;;;27.70;91.30;;;;;;5091149;28;20168;-51
2023/06/18 09:14:37;;;;;;;4.82;4.40;;;27.40;90.00;;;;;;5090732;28;20171;-50
2023/06/18 09:17:03;;;;;;;5.75;4.00;;;27.40;91.40;;;;;;5086856;28;20172;-50
2023/06/18 09:19:30;;;;;;;5.38;4.18;;;28.30;90.70;;;;;;5086079;28;20244;-50
2023/06/18 09:21:56;;;;;;;6.82;4.18;;;27.80;91.00;;;;;;5074125;28;20193;-52
2023/06/18 09:24:22;;;;;;;5.78;4.30;;;28.00;89.60;;;;;;5072313;28;20165;-50
2023/06/18 09:26:51;;;;;;;11.50;4.65;;;28.10;87.50;;;;;;5088425;28;20299;-51
2023/06/18 09:29:16;;;;;;;7.68;4.53;;;28.10;88.90;;;;;;5091422;28;20163;-50
2023/06/18 09:31:47;;;;;;;6.88;4.18;;;28.10;86.50;;;;;;5089827;28;20165;-51
2023/06/18 09:34:14;;;;;;;4.47;4.07;;;27.90;85.10;;;;;;5071425;28;20169;-51
2023/06/18 09:36:44;;;;;;;6.28;4.28;;;27.90;84.70;;;;;;5074396;28;20717;-50
2023/06/18 09:39:23;;;;;;;6.13;4.70;;;28.20;85.40;;;;;;5089655;28;20635;-51
2023/06/18 09:41:51;;;;;;;4.78;4.28;;;28.30;87.40;;;;;;5091421;28;20203;-50
2023/06/18 09:44:18;;;;;;;4.32;3.92;;;28.40;82.20;;;;;;5091549;28;20169;-51
2023/06/18 09:46:48;;;;;;;4.88;4.38;;;28.40;78.90;;;;;;5091140;28;20566;-50
2023/06/18 09:49:17;;;;;;;12.20;4.72;;;28.30;79.40;;;;;;5090829;28;20175;-51
2023/06/18 09:51:42;;;;;;;5.45;4.15;;;28.40;79.90;;;;;;5090936;28;20230;-51
2023/06/18 09:54:09;;;;;;;5.88;4.55;;;28.50;77.80;;;;;;5090822;28;20173;-50
2023/06/18 09:56:35;;;;;;;6.35;4.50;;;28.20;78.10;;;;;;5090629;28;20180;-51
2023/06/18 09:59:03;;;;;;;6.75;4.38;;;28.20;76.30;;;;;;5090606;28;20263;-51
2023/06/18 10:01:43;;;;;;;5.78;5.18;;;28.40;79.80;;;;;;5090568;28;20165;-50
2023/06/18 10:04:09;;;;;;;7.72;4.55;;;28.70;77.70;;;;;;5090637;28;20214;-51
2023/06/18 10:06:37;;;;;;;7.43;4.95;;;28.80;77.60;;;;;;5090600;28;20216;-50
2023/06/18 10:09:04;;;;;;;5.80;4.55;;;29.10;76.10;;;;;;5090480;28;20223;-50
2023/06/18 10:11:31;;;;;;;7.38;4.60;;;29.20;75.30;;;;;;5090418;28;20279;-51
2023/06/18 10:14:04;;;;;;;9.13;4.95;;;29.20;76.70;;;;;;5090375;28;20673;-50
2023/06/18 10:16:32;;;;;;;7.18;4.50;;;29.40;76.10;;;;;;5089553;28;20177;-51
2023/06/18 10:19:03;;;;;;;5.80;4.95;;;29.30;73.70;;;;;;5089312;28;20165;-50
2023/06/18 10:21:32;;;;;;;7.18;4.82;;;29.40;76.40;;;;;;5090582;28;20179;-51
2023/06/18 10:24:20;;;;;;;6.65;4.60;;;29.50;76.00;;;;;;5090195;28;20252;-50
2023/06/18 10:26:46;;;;;;;7.32;4.82;;;29.50;78.10;;;;;;5090592;28;20223;-51
2023/06/18 10:29:12;;;;;;;11.15;4.95;;;29.90;74.60;;;;;;5090331;28;20169;-51
2023/06/18 10:31:38;;;;;;;6.25;4.85;;;30.00;74.90;;;;;;5090317;28;20173;-51
2023/06/18 10:34:05;;;;;;;10.00;5.13;;;30.10;73.90;;;;;;5090450;28;20161;-52
2023/06/18 10:36:31;;;;;;;5.55;4.78;;;;;;;;;;5089945;28;20226;-51
2023/06/18 10:38:58;;;;;;;7.30;4.50;;;30.10;72.40;;;;;;5089780;28;20174;-51
2023/06/18 10:41:24;;;;;;;8.23;4.45;;;29.90;71.60;;;;;;5090394;28;20179;-51
2023/06/18 10:43:51;;;;;;;6.53;4.43;;;29.90;72.60;;;;;;5089968;28;20169;-51
2023/06/18 10:46:17;;;;;;;5.55;4.55;;;29.80;73.20;;;;;;5090763;28;20698;-52
2023/06/18 10:49:17;;;;;;;5.80;4.72;;;30.20;73.60;;;;;;5090022;28;20635;-52
2023/06/18 10:51:59;;;;;;;8.27;5.05;;;30.30;72.70;;;;;;5090025;28;20168;-51
2023/06/18 10:54:29;;;;;;;6.18;5.20;;;30.40;72.90;;;;;;5090216;28;20165;-52
2023/06/18 10:56:57;;;;;;;5.68;4.75;;;30.10;70.10;;;;;;5090145;28;20234;-51
2023/06/18 10:59:42;;;;;;;6.45;4.70;;;30.10;73.40;;;;;;5089945;28;20163;-51
2023/06/18 11:02:08;;;;;;;7.18;4.88;;;;;;;;;;5090012;28;20176;-51
2023/06/18 11:04:34;;;;;;;6.60;4.70;;;30.00;72.00;;;;;;5089915;28;20168;-51
2023/06/18 11:07:25;;;;;;;6.60;4.82;;;30.70;71.80;;;;;;5080220;28;20563;-51
2023/06/18 11:09:59;;;;;;;6.63;5.10;;;30.40;72.40;;;;;;5072015;28;20203;-51
2023/06/18 11:12:29;;;;;;;7.40;4.55;;;30.30;74.70;;;;;;5068965;28;20226;-51
2023/06/18 11:15:16;;;;;;;9.43;5.10;;;30.50;72.20;;;;;;5069186;28;20177;-51
2023/06/18 11:17:53;;;;;;;8.30;5.07;;;30.50;71.60;;;;;;5069217;28;20173;-52
2023/06/18 11:20:20;;;;;;;6.72;5.20;;;30.40;72.50;;;;;;5075150;28;20247;-51
2023/06/18 11:22:47;;;;;;;7.00;4.63;;;30.40;71.20;;;;;;5072925;28;20182;-51
2023/06/18 11:25:15;;;;;;;9.88;5.10;;;30.60;71.50;;;;;;5069084;28;20170;-51
2023/06/18 11:27:46;;;;;;;5.18;4.63;;;30.50;70.50;;;;;;5068929;28;20202;-51
2023/06/18 11:30:13;;;;;;;5.85;4.78;;;30.80;69.50;;;;;;5061742;28;20157;-51
2023/06/18 11:32:42;;;;;;;5.30;4.75;;;31.00;68.80;;;;;;5078940;28;20220;-51
2023/06/18 11:35:10;;;;;;;6.85;5.00;;;30.90;69.20;;;;;;5092478;28;20173;-51
2023/06/18 11:37:38;;;;;;;5.63;4.70;;;31.10;69.40;;;;;;5084029;28;20648;-51
2023/06/18 11:40:07;;;;;;;5.72;4.35;;;31.20;68.80;;;;;;5072285;28;20252;-51
2023/06/18 11:42:34;;;;;;;6.10;4.93;;;31.00;67.00;;;;;;5073705;28;20268;-51
2023/06/18 11:45:03;;;;;;;6.88;4.65;;;30.90;67.70;;;;;;5090822;28;20541;-51
2023/06/18 11:47:33;;;;;;;5.80;4.65;;;31.10;70.80;;;;;;5086216;28;20607;-52
2023/06/18 11:49:59;;;;;;;6.60;5.30;;;30.50;68.60;;;;;;5073968;28;20273;-52
2023/06/18 11:52:26;;;;;;;6.15;5.43;;;31.10;68.40;;;;;;5078496;28;20248;-51
2023/06/18 11:54:54;;;;;;;4.85;4.43;;;30.90;68.30;;;;;;5080336;28;20175;-51
2023/06/18 11:57:21;;;;;;;7.03;4.90;;;30.50;68.00;;;;;;5076478;28;20235;-51
2023/06/18 11:59:50;;;;;;;6.38;4.55;;;30.90;68.90;;;;;;5073526;28;20181;-51
2023/06/18 12:02:26;;;;;;;7.53;5.18;;;30.70;69.10;;;;;;5072366;28;20208;-52
2023/06/18 12:04:57;;;;;;;6.75;4.68;;;30.50;69.60;;;;;;5076733;28;20172;-52
2023/06/18 12:07:24;;;;;;;5.63;4.70;;;30.40;70.60;;;;;;5072792;28;20224;-52
2023/06/18 12:09:51;;;;;;;6.03;4.57;;;30.40;69.70;;;;;;5080496;28;20202;-52
2023/06/18 12:12:30;;;;;;;5.28;4.75;;;30.50;70.80;;;;;;5075765;28;20177;-52
2023/06/18 12:15:00;;;;;;;7.22;5.25;;;30.40;71.20;;;;;;5071899;28;20169;-52
2023/06/18 12:17:58;;;;;;;8.52;5.45;;;30.50;71.40;;;;;;5071137;28;20166;-52
2023/06/18 12:20:28;;;;;;;5.45;4.95;;;30.80;68.20;;;;;;5071869;28;20181;-52
2023/06/18 12:22:55;;;;;;;7.28;4.80;;;30.00;68.90;;;;;;5072011;28;20169;-52
2023/06/18 12:25:23;;;;;;;7.75;5.13;;;29.80;69.00;;;;;;5072183;28;20165;-53
2023/06/18 12:27:50;;;;;;;6.72;4.45;;;29.70;69.30;;;;;;5072262;28;20207;-52
2023/06/18 12:30:16;;;;;;;9.57;5.07;;;29.30;69.20;;;;;;5072552;28;20245;-53
2023/06/18 12:33:00;;;;;;;6.30;4.65;;;29.60;70.50;;;;;;5054248;28;20248;-52
2023/06/18 12:35:25;;;;;;;8.10;5.15;;;29.20;73.30;;;;;;5071990;28;20169;-52
2023/06/18 12:37:51;;;;;;;5.65;5.15;;;;;;;;;;5071505;28;20286;-52
2023/06/18 12:40:22;;;;;;;5.60;4.75;;;29.30;73.30;;;;;;5054388;28;20169;-52
2023/06/18 12:42:48;;;;;;;5.50;4.68;;;29.20;76.40;;;;;;5071078;28;20668;-52
2023/06/18 12:45:15;;;;;;;5.80;5.13;;;29.30;75.30;;;;;;5072413;28;20623;-52
2023/06/18 12:47:42;;;;;;;6.15;5.05;;;29.30;76.90;;;;;;5071277;28;20208;-52
2023/06/18 12:50:09;;;;;;;5.43;4.85;;;29.30;72.40;;;;;;5071962;28;20165;-52
2023/06/18 12:52:40;;;;;;;8.43;5.35;;;29.30;72.00;;;;;;5071800;28;20169;-52
2023/06/18 12:55:16;;;;;;;5.70;4.45;;;29.50;72.60;;;;;;5071404;28;20172;-52